sensor_id;sensor_type;location;lat;lon;timestamp;P1;durP1;ratioP1;P2;durP2;ratioP2
17727;SDS011;8984;49.268;12.302;2022-12-18T00:01:13;82.37;;;33.47;;
17727;SDS011;8984;49.268;12.302;2022-12-18T00:03:41;75.07;;;35.77;;
17727;SDS011;8984;49.268;12.302;2022-12-18T00:06:08;68.20;;;32.57;;
17727;SDS011;8984;49.268;12.302;2022-12-18T00:08:36;74.23;;;33.30;;
17727;SDS011;8984;49.268;12.302;2022-12-18T00:11:05;65.50;;;30.13;;
17727;SDS011;8984;49.268;12.302;2022-12-18T00:13:33;69.27;;;30.40;;
17727;SDS011;8984;49.268;12.302;2022-12-18T00:16:01;83.33;;;35.70;;
17727;SDS011;8984;49.268;12.302;2022-12-18T00:18:28;85.43;;;35.20;;
17727;SDS011;8984;49.268;12.302;2022-12-18T00:20:58;73.27;;;32.57;;
17727;SDS011;8984;49.268;12.302;2022-12-18T00:23:25;75.27;;;32.17;;
17727;SDS011;8984;49.268;12.302;2022-12-18T00:25:52;73.23;;;32.80;;
17727;SDS011;8984;49.268;12.302;2022-12-18T00:28:21;69.87;;;32.03;;
17727;SDS011;8984;49.268;12.302;2022-12-18T00:30:48;83.37;;;36.00;;
17727;SDS011;8984;49.268;12.302;2022-12-18T00:33:16;74.17;;;33.20;;
17727;SDS011;8984;49.268;12.302;2022-12-18T00:35:43;77.53;;;34.73;;
17727;SDS011;8984;49.268;12.302;2022-12-18T00:38:10;90.77;;;41.93;;
17727;SDS011;8984;49.268;12.302;2022-12-18T00:40:38;82.67;;;36.90;;
17727;SDS011;8984;49.268;12.302;2022-12-18T00:43:08;85.03;;;36.03;;
17727;SDS011;8984;49.268;12.302;2022-12-18T00:45:38;79.40;;;34.43;;
17727;SDS011;8984;49.268;12.302;2022-12-18T00:48:06;77.87;;;32.23;;
17727;SDS011;8984;49.268;12.302;2022-12-18T00:50:33;81.10;;;35.13;;
17727;SDS011;8984;49.268;12.302;2022-12-18T00:53:00;87.37;;;35.37;;
17727;SDS011;8984;49.268;12.302;2022-12-18T00:55:27;87.83;;;36.07;;
17727;SDS011;8984;49.268;12.302;2022-12-18T00:57:54;82.83;;;35.43;;
17727;SDS011;8984;49.268;12.302;2022-12-18T01:00:21;85.13;;;36.97;;
17727;SDS011;8984;49.268;12.302;2022-12-18T01:02:50;90.83;;;37.57;;
17727;SDS011;8984;49.268;12.302;2022-12-18T01:05:17;88.67;;;38.17;;
17727;SDS011;8984;49.268;12.302;2022-12-18T01:07:44;88.33;;;37.87;;
17727;SDS011;8984;49.268;12.302;2022-12-18T01:10:11;97.27;;;38.90;;
17727;SDS011;8984;49.268;12.302;2022-12-18T01:12:39;107.00;;;40.87;;
17727;SDS011;8984;49.268;12.302;2022-12-18T01:15:07;83.97;;;35.97;;
17727;SDS011;8984;49.268;12.302;2022-12-18T01:17:35;74.70;;;32.93;;
17727;SDS011;8984;49.268;12.302;2022-12-18T01:20:04;75.00;;;33.70;;
17727;SDS011;8984;49.268;12.302;2022-12-18T01:22:33;79.53;;;33.50;;
17727;SDS011;8984;49.268;12.302;2022-12-18T01:25:00;75.07;;;32.70;;
17727;SDS011;8984;49.268;12.302;2022-12-18T01:27:27;68.33;;;32.37;;
17727;SDS011;8984;49.268;12.302;2022-12-18T01:29:55;74.37;;;33.47;;
17727;SDS011;8984;49.268;12.302;2022-12-18T01:32:22;81.87;;;35.20;;
17727;SDS011;8984;49.268;12.302;2022-12-18T01:34:49;79.73;;;33.07;;
17727;SDS011;8984;49.268;12.302;2022-12-18T01:37:17;81.63;;;34.07;;
17727;SDS011;8984;49.268;12.302;2022-12-18T01:39:44;74.10;;;33.03;;
17727;SDS011;8984;49.268;12.302;2022-12-18T01:42:11;66.70;;;30.93;;
17727;SDS011;8984;49.268;12.302;2022-12-18T01:44:54;66.03;;;31.50;;
17727;SDS011;8984;49.268;12.302;2022-12-18T01:47:27;66.93;;;30.50;;
17727;SDS011;8984;49.268;12.302;2022-12-18T01:49:58;69.73;;;31.97;;
17727;SDS011;8984;49.268;12.302;2022-12-18T01:52:31;64.67;;;30.77;;
17727;SDS011;8984;49.268;12.302;2022-12-18T01:54:59;67.63;;;29.57;;
17727;SDS011;8984;49.268;12.302;2022-12-18T01:57:28;72.13;;;32.00;;
17727;SDS011;8984;49.268;12.302;2022-12-18T01:59:57;79.43;;;33.73;;
17727;SDS011;8984;49.268;12.302;2022-12-18T02:02:27;79.13;;;33.23;;
17727;SDS011;8984;49.268;12.302;2022-12-18T02:04:55;93.97;;;36.37;;
17727;SDS011;8984;49.268;12.302;2022-12-18T02:07:25;83.83;;;34.07;;
17727;SDS011;8984;49.268;12.302;2022-12-18T02:10:03;74.40;;;31.97;;
17727;SDS011;8984;49.268;12.302;2022-12-18T02:12:35;82.03;;;34.27;;
17727;SDS011;8984;49.268;12.302;2022-12-18T02:15:10;82.00;;;33.60;;
17727;SDS011;8984;49.268;12.302;2022-12-18T02:17:43;63.57;;;29.93;;
17727;SDS011;8984;49.268;12.302;2022-12-18T02:20:16;63.83;;;29.83;;
17727;SDS011;8984;49.268;12.302;2022-12-18T02:22:58;69.93;;;31.50;;
17727;SDS011;8984;49.268;12.302;2022-12-18T02:25:38;71.30;;;31.07;;
17727;SDS011;8984;49.268;12.302;2022-12-18T02:28:15;61.30;;;29.77;;
17727;SDS011;8984;49.268;12.302;2022-12-18T02:30:46;58.87;;;27.90;;
17727;SDS011;8984;49.268;12.302;2022-12-18T02:33:15;49.33;;;25.77;;
17727;SDS011;8984;49.268;12.302;2022-12-18T02:35:43;57.83;;;28.03;;
17727;SDS011;8984;49.268;12.302;2022-12-18T02:38:13;75.13;;;32.53;;
17727;SDS011;8984;49.268;12.302;2022-12-18T02:40:41;66.23;;;30.90;;
17727;SDS011;8984;49.268;12.302;2022-12-18T02:43:09;68.73;;;32.57;;
17727;SDS011;8984;49.268;12.302;2022-12-18T02:45:47;63.20;;;30.50;;
17727;SDS011;8984;49.268;12.302;2022-12-18T02:48:16;73.03;;;32.77;;
17727;SDS011;8984;49.268;12.302;2022-12-18T02:50:45;70.90;;;31.80;;
17727;SDS011;8984;49.268;12.302;2022-12-18T02:53:21;72.77;;;30.60;;
17727;SDS011;8984;49.268;12.302;2022-12-18T02:55:58;74.27;;;32.57;;
17727;SDS011;8984;49.268;12.302;2022-12-18T02:58:33;68.90;;;31.57;;
17727;SDS011;8984;49.268;12.302;2022-12-18T03:01:09;71.77;;;32.10;;
17727;SDS011;8984;49.268;12.302;2022-12-18T03:03:41;75.13;;;32.47;;
17727;SDS011;8984;49.268;12.302;2022-12-18T03:06:14;71.20;;;32.07;;
17727;SDS011;8984;49.268;12.302;2022-12-18T03:08:47;70.47;;;31.13;;
17727;SDS011;8984;49.268;12.302;2022-12-18T03:11:19;79.67;;;33.37;;
17727;SDS011;8984;49.268;12.302;2022-12-18T03:14:07;72.77;;;30.40;;
17727;SDS011;8984;49.268;12.302;2022-12-18T03:16:37;73.90;;;32.03;;
17727;SDS011;8984;49.268;12.302;2022-12-18T03:19:06;66.77;;;30.27;;
17727;SDS011;8984;49.268;12.302;2022-12-18T03:21:40;64.67;;;30.17;;
17727;SDS011;8984;49.268;12.302;2022-12-18T03:24:09;61.00;;;30.20;;
17727;SDS011;8984;49.268;12.302;2022-12-18T03:26:37;59.93;;;28.70;;
17727;SDS011;8984;49.268;12.302;2022-12-18T03:29:08;65.83;;;30.37;;
17727;SDS011;8984;49.268;12.302;2022-12-18T03:31:40;64.00;;;30.13;;
17727;SDS011;8984;49.268;12.302;2022-12-18T03:34:14;59.67;;;29.57;;
17727;SDS011;8984;49.268;12.302;2022-12-18T03:36:43;71.40;;;30.53;;
17727;SDS011;8984;49.268;12.302;2022-12-18T03:39:11;70.67;;;31.17;;
17727;SDS011;8984;49.268;12.302;2022-12-18T03:41:38;65.93;;;30.33;;
17727;SDS011;8984;49.268;12.302;2022-12-18T03:44:11;73.10;;;31.70;;
17727;SDS011;8984;49.268;12.302;2022-12-18T03:46:45;78.43;;;31.63;;
17727;SDS011;8984;49.268;12.302;2022-12-18T03:49:19;65.37;;;29.83;;
17727;SDS011;8984;49.268;12.302;2022-12-18T03:51:52;75.27;;;32.03;;
17727;SDS011;8984;49.268;12.302;2022-12-18T03:54:26;68.07;;;29.43;;
17727;SDS011;8984;49.268;12.302;2022-12-18T03:56:57;67.00;;;30.63;;
17727;SDS011;8984;49.268;12.302;2022-12-18T03:59:27;61.27;;;29.80;;
17727;SDS011;8984;49.268;12.302;2022-12-18T04:01:57;76.00;;;31.53;;
17727;SDS011;8984;49.268;12.302;2022-12-18T04:04:26;63.63;;;30.33;;
17727;SDS011;8984;49.268;12.302;2022-12-18T04:06:55;57.53;;;27.90;;
17727;SDS011;8984;49.268;12.302;2022-12-18T04:09:23;58.20;;;27.27;;
17727;SDS011;8984;49.268;12.302;2022-12-18T04:11:51;57.77;;;27.57;;
17727;SDS011;8984;49.268;12.302;2022-12-18T04:14:18;60.03;;;28.30;;
17727;SDS011;8984;49.268;12.302;2022-12-18T04:16:46;53.70;;;25.90;;
17727;SDS011;8984;49.268;12.302;2022-12-18T04:19:14;56.47;;;27.17;;
17727;SDS011;8984;49.268;12.302;2022-12-18T04:21:42;62.70;;;28.33;;
17727;SDS011;8984;49.268;12.302;2022-12-18T04:24:09;59.43;;;26.80;;
17727;SDS011;8984;49.268;12.302;2022-12-18T04:26:36;57.90;;;28.57;;
17727;SDS011;8984;49.268;12.302;2022-12-18T04:29:03;56.77;;;26.90;;
17727;SDS011;8984;49.268;12.302;2022-12-18T04:31:30;54.07;;;26.07;;
17727;SDS011;8984;49.268;12.302;2022-12-18T04:33:57;51.93;;;25.73;;
17727;SDS011;8984;49.268;12.302;2022-12-18T04:36:25;52.47;;;25.13;;
17727;SDS011;8984;49.268;12.302;2022-12-18T04:38:52;54.53;;;26.50;;
17727;SDS011;8984;49.268;12.302;2022-12-18T04:41:19;48.60;;;23.73;;
17727;SDS011;8984;49.268;12.302;2022-12-18T04:43:46;53.53;;;25.27;;
17727;SDS011;8984;49.268;12.302;2022-12-18T04:46:13;43.83;;;22.77;;
17727;SDS011;8984;49.268;12.302;2022-12-18T04:48:40;42.90;;;22.20;;
17727;SDS011;8984;49.268;12.302;2022-12-18T04:51:07;41.03;;;21.53;;
17727;SDS011;8984;49.268;12.302;2022-12-18T04:53:35;39.63;;;20.37;;
17727;SDS011;8984;49.268;12.302;2022-12-18T04:56:03;43.33;;;23.07;;
17727;SDS011;8984;49.268;12.302;2022-12-18T04:58:31;42.50;;;21.97;;
17727;SDS011;8984;49.268;12.302;2022-12-18T05:00:59;47.10;;;24.13;;
17727;SDS011;8984;49.268;12.302;2022-12-18T05:03:26;45.40;;;23.57;;
17727;SDS011;8984;49.268;12.302;2022-12-18T05:05:53;45.50;;;22.20;;
17727;SDS011;8984;49.268;12.302;2022-12-18T05:08:20;50.83;;;24.77;;
17727;SDS011;8984;49.268;12.302;2022-12-18T05:10:48;47.40;;;23.77;;
17727;SDS011;8984;49.268;12.302;2022-12-18T05:13:15;48.80;;;24.30;;
17727;SDS011;8984;49.268;12.302;2022-12-18T05:15:42;54.53;;;25.83;;
17727;SDS011;8984;49.268;12.302;2022-12-18T05:18:17;60.10;;;25.63;;
17727;SDS011;8984;49.268;12.302;2022-12-18T05:20:44;54.37;;;24.93;;
17727;SDS011;8984;49.268;12.302;2022-12-18T05:23:11;40.50;;;21.30;;
17727;SDS011;8984;49.268;12.302;2022-12-18T05:25:39;37.90;;;19.97;;
17727;SDS011;8984;49.268;12.302;2022-12-18T05:28:07;40.17;;;22.00;;
17727;SDS011;8984;49.268;12.302;2022-12-18T05:30:35;43.93;;;22.00;;
17727;SDS011;8984;49.268;12.302;2022-12-18T05:33:01;38.60;;;20.20;;
17727;SDS011;8984;49.268;12.302;2022-12-18T05:35:28;40.63;;;21.43;;
17727;SDS011;8984;49.268;12.302;2022-12-18T05:37:55;38.77;;;20.87;;
17727;SDS011;8984;49.268;12.302;2022-12-18T05:40:22;38.83;;;20.47;;
17727;SDS011;8984;49.268;12.302;2022-12-18T05:42:49;45.13;;;21.77;;
17727;SDS011;8984;49.268;12.302;2022-12-18T05:45:18;41.50;;;22.47;;
17727;SDS011;8984;49.268;12.302;2022-12-18T05:47:45;38.13;;;20.83;;
17727;SDS011;8984;49.268;12.302;2022-12-18T05:50:12;37.53;;;21.07;;
17727;SDS011;8984;49.268;12.302;2022-12-18T05:52:39;43.90;;;22.67;;
17727;SDS011;8984;49.268;12.302;2022-12-18T05:55:06;39.70;;;21.70;;
17727;SDS011;8984;49.268;12.302;2022-12-18T05:57:34;45.10;;;23.07;;
17727;SDS011;8984;49.268;12.302;2022-12-18T06:00:01;37.10;;;20.07;;
17727;SDS011;8984;49.268;12.302;2022-12-18T06:02:30;42.70;;;20.87;;
17727;SDS011;8984;49.268;12.302;2022-12-18T06:04:57;39.90;;;21.83;;
17727;SDS011;8984;49.268;12.302;2022-12-18T06:07:24;47.53;;;24.17;;
17727;SDS011;8984;49.268;12.302;2022-12-18T06:09:51;41.73;;;21.83;;
17727;SDS011;8984;49.268;12.302;2022-12-18T06:12:18;41.30;;;21.03;;
17727;SDS011;8984;49.268;12.302;2022-12-18T06:14:46;40.30;;;22.33;;
17727;SDS011;8984;49.268;12.302;2022-12-18T06:17:13;43.47;;;22.93;;
17727;SDS011;8984;49.268;12.302;2022-12-18T06:19:41;43.57;;;23.10;;
17727;SDS011;8984;49.268;12.302;2022-12-18T06:22:08;40.07;;;20.93;;
17727;SDS011;8984;49.268;12.302;2022-12-18T06:24:35;39.03;;;20.67;;
17727;SDS011;8984;49.268;12.302;2022-12-18T06:27:02;40.47;;;21.37;;
17727;SDS011;8984;49.268;12.302;2022-12-18T06:29:29;39.40;;;20.87;;
17727;SDS011;8984;49.268;12.302;2022-12-18T06:31:56;38.47;;;21.87;;
17727;SDS011;8984;49.268;12.302;2022-12-18T06:34:23;45.63;;;21.93;;
17727;SDS011;8984;49.268;12.302;2022-12-18T06:36:52;39.07;;;21.13;;
17727;SDS011;8984;49.268;12.302;2022-12-18T06:39:19;43.53;;;22.07;;
17727;SDS011;8984;49.268;12.302;2022-12-18T06:41:46;43.63;;;21.90;;
17727;SDS011;8984;49.268;12.302;2022-12-18T06:44:13;43.00;;;21.83;;
17727;SDS011;8984;49.268;12.302;2022-12-18T06:46:40;40.97;;;21.87;;
17727;SDS011;8984;49.268;12.302;2022-12-18T06:49:07;36.93;;;20.53;;
17727;SDS011;8984;49.268;12.302;2022-12-18T06:51:34;37.13;;;20.07;;
17727;SDS011;8984;49.268;12.302;2022-12-18T06:54:03;38.37;;;20.30;;
17727;SDS011;8984;49.268;12.302;2022-12-18T06:56:30;37.90;;;20.80;;
17727;SDS011;8984;49.268;12.302;2022-12-18T06:58:57;35.63;;;19.73;;
17727;SDS011;8984;49.268;12.302;2022-12-18T07:01:24;38.90;;;20.47;;
17727;SDS011;8984;49.268;12.302;2022-12-18T07:03:52;39.40;;;21.13;;
17727;SDS011;8984;49.268;12.302;2022-12-18T07:06:20;36.97;;;20.10;;
17727;SDS011;8984;49.268;12.302;2022-12-18T07:08:49;37.10;;;20.83;;
17727;SDS011;8984;49.268;12.302;2022-12-18T07:11:18;39.90;;;21.47;;
17727;SDS011;8984;49.268;12.302;2022-12-18T07:13:45;38.97;;;20.53;;
17727;SDS011;8984;49.268;12.302;2022-12-18T07:16:14;39.73;;;21.87;;
17727;SDS011;8984;49.268;12.302;2022-12-18T07:18:42;38.07;;;21.03;;
17727;SDS011;8984;49.268;12.302;2022-12-18T07:21:10;37.10;;;21.80;;
17727;SDS011;8984;49.268;12.302;2022-12-18T07:23:41;40.33;;;21.23;;
17727;SDS011;8984;49.268;12.302;2022-12-18T07:26:09;34.27;;;19.13;;
17727;SDS011;8984;49.268;12.302;2022-12-18T07:28:40;39.40;;;21.97;;
17727;SDS011;8984;49.268;12.302;2022-12-18T07:31:09;37.30;;;23.20;;
17727;SDS011;8984;49.268;12.302;2022-12-18T07:33:39;41.97;;;24.57;;
17727;SDS011;8984;49.268;12.302;2022-12-18T07:36:07;35.37;;;20.97;;
17727;SDS011;8984;49.268;12.302;2022-12-18T07:38:35;33.73;;;20.70;;
17727;SDS011;8984;49.268;12.302;2022-12-18T07:41:03;32.93;;;19.67;;
17727;SDS011;8984;49.268;12.302;2022-12-18T07:43:31;42.47;;;20.93;;
17727;SDS011;8984;49.268;12.302;2022-12-18T07:46:00;33.90;;;19.20;;
17727;SDS011;8984;49.268;12.302;2022-12-18T07:48:28;32.43;;;19.20;;
17727;SDS011;8984;49.268;12.302;2022-12-18T07:50:57;28.33;;;17.57;;
17727;SDS011;8984;49.268;12.302;2022-12-18T07:53:24;43.53;;;22.47;;
17727;SDS011;8984;49.268;12.302;2022-12-18T07:55:54;34.67;;;21.00;;
17727;SDS011;8984;49.268;12.302;2022-12-18T07:58:22;35.63;;;22.80;;
17727;SDS011;8984;49.268;12.302;2022-12-18T08:00:49;36.47;;;19.77;;
17727;SDS011;8984;49.268;12.302;2022-12-18T08:03:17;32.10;;;19.20;;
17727;SDS011;8984;49.268;12.302;2022-12-18T08:05:44;30.53;;;18.43;;
17727;SDS011;8984;49.268;12.302;2022-12-18T08:08:11;26.03;;;16.00;;
17727;SDS011;8984;49.268;12.302;2022-12-18T08:10:38;25.30;;;15.47;;
17727;SDS011;8984;49.268;12.302;2022-12-18T08:13:06;30.90;;;16.60;;
17727;SDS011;8984;49.268;12.302;2022-12-18T08:15:33;25.60;;;16.00;;
17727;SDS011;8984;49.268;12.302;2022-12-18T08:18:00;25.00;;;16.90;;
17727;SDS011;8984;49.268;12.302;2022-12-18T08:20:28;26.03;;;15.63;;
17727;SDS011;8984;49.268;12.302;2022-12-18T08:22:55;26.97;;;16.23;;
17727;SDS011;8984;49.268;12.302;2022-12-18T08:25:23;26.43;;;16.27;;
17727;SDS011;8984;49.268;12.302;2022-12-18T08:27:50;27.17;;;16.63;;
17727;SDS011;8984;49.268;12.302;2022-12-18T08:30:17;28.63;;;16.90;;
17727;SDS011;8984;49.268;12.302;2022-12-18T08:32:44;28.63;;;17.37;;
17727;SDS011;8984;49.268;12.302;2022-12-18T08:35:11;26.40;;;16.37;;
17727;SDS011;8984;49.268;12.302;2022-12-18T08:37:40;30.17;;;17.50;;
17727;SDS011;8984;49.268;12.302;2022-12-18T08:40:07;26.77;;;15.90;;
17727;SDS011;8984;49.268;12.302;2022-12-18T08:42:36;26.70;;;16.63;;
17727;SDS011;8984;49.268;12.302;2022-12-18T08:45:20;27.57;;;16.63;;
17727;SDS011;8984;49.268;12.302;2022-12-18T08:47:47;29.70;;;17.53;;
17727;SDS011;8984;49.268;12.302;2022-12-18T08:50:14;26.87;;;16.70;;
17727;SDS011;8984;49.268;12.302;2022-12-18T08:52:43;29.17;;;16.63;;
17727;SDS011;8984;49.268;12.302;2022-12-18T08:55:10;27.37;;;16.90;;
17727;SDS011;8984;49.268;12.302;2022-12-18T08:57:37;27.03;;;15.63;;
17727;SDS011;8984;49.268;12.302;2022-12-18T09:00:04;29.27;;;17.23;;
17727;SDS011;8984;49.268;12.302;2022-12-18T09:02:32;27.23;;;16.20;;
17727;SDS011;8984;49.268;12.302;2022-12-18T09:05:00;25.30;;;15.40;;
17727;SDS011;8984;49.268;12.302;2022-12-18T09:07:27;31.47;;;17.70;;
17727;SDS011;8984;49.268;12.302;2022-12-18T09:09:55;30.53;;;17.97;;
17727;SDS011;8984;49.268;12.302;2022-12-18T09:12:22;35.87;;;21.63;;
17727;SDS011;8984;49.268;12.302;2022-12-18T09:14:50;30.60;;;17.03;;
17727;SDS011;8984;49.268;12.302;2022-12-18T09:17:17;31.37;;;18.07;;
17727;SDS011;8984;49.268;12.302;2022-12-18T09:19:44;32.30;;;18.17;;
17727;SDS011;8984;49.268;12.302;2022-12-18T09:22:11;41.07;;;24.53;;
17727;SDS011;8984;49.268;12.302;2022-12-18T09:24:38;29.20;;;16.43;;
17727;SDS011;8984;49.268;12.302;2022-12-18T09:27:06;33.70;;;21.40;;
17727;SDS011;8984;49.268;12.302;2022-12-18T09:29:33;29.67;;;18.77;;
17727;SDS011;8984;49.268;12.302;2022-12-18T09:32:00;33.03;;;19.17;;
17727;SDS011;8984;49.268;12.302;2022-12-18T09:34:28;31.17;;;17.43;;
17727;SDS011;8984;49.268;12.302;2022-12-18T09:36:55;28.47;;;16.10;;
17727;SDS011;8984;49.268;12.302;2022-12-18T09:39:22;28.73;;;17.33;;
17727;SDS011;8984;49.268;12.302;2022-12-18T09:41:50;25.37;;;15.03;;
17727;SDS011;8984;49.268;12.302;2022-12-18T09:44:22;27.67;;;15.27;;
17727;SDS011;8984;49.268;12.302;2022-12-18T09:46:53;27.33;;;16.57;;
17727;SDS011;8984;49.268;12.302;2022-12-18T09:49:35;28.47;;;15.77;;
17727;SDS011;8984;49.268;12.302;2022-12-18T09:52:09;25.20;;;15.47;;
17727;SDS011;8984;49.268;12.302;2022-12-18T09:54:43;27.93;;;16.10;;
17727;SDS011;8984;49.268;12.302;2022-12-18T09:57:15;25.30;;;15.30;;
17727;SDS011;8984;49.268;12.302;2022-12-18T09:59:46;25.73;;;13.60;;
17727;SDS011;8984;49.268;12.302;2022-12-18T10:02:18;27.60;;;16.97;;
17727;SDS011;8984;49.268;12.302;2022-12-18T10:04:50;22.60;;;14.20;;
17727;SDS011;8984;49.268;12.302;2022-12-18T10:07:27;18.90;;;13.17;;
17727;SDS011;8984;49.268;12.302;2022-12-18T10:10:03;17.73;;;11.77;;
17727;SDS011;8984;49.268;12.302;2022-12-18T10:12:36;19.00;;;11.60;;
17727;SDS011;8984;49.268;12.302;2022-12-18T10:15:13;17.87;;;11.30;;
17727;SDS011;8984;49.268;12.302;2022-12-18T10:17:48;14.57;;;9.47;;
17727;SDS011;8984;49.268;12.302;2022-12-18T10:20:20;16.07;;;9.90;;
17727;SDS011;8984;49.268;12.302;2022-12-18T10:22:52;15.60;;;10.17;;
17727;SDS011;8984;49.268;12.302;2022-12-18T10:25:24;17.47;;;10.33;;
17727;SDS011;8984;49.268;12.302;2022-12-18T10:27:56;15.47;;;9.27;;
17727;SDS011;8984;49.268;12.302;2022-12-18T10:30:27;24.60;;;15.63;;
17727;SDS011;8984;49.268;12.302;2022-12-18T10:32:58;15.83;;;10.00;;
17727;SDS011;8984;49.268;12.302;2022-12-18T10:35:27;17.17;;;9.77;;
17727;SDS011;8984;49.268;12.302;2022-12-18T10:38:02;15.97;;;10.47;;
17727;SDS011;8984;49.268;12.302;2022-12-18T10:40:31;35.70;;;15.23;;
17727;SDS011;8984;49.268;12.302;2022-12-18T10:43:09;14.50;;;10.30;;
17727;SDS011;8984;49.268;12.302;2022-12-18T10:45:42;18.83;;;12.37;;
17727;SDS011;8984;49.268;12.302;2022-12-18T10:48:28;20.27;;;12.03;;
17727;SDS011;8984;49.268;12.302;2022-12-18T10:50:57;29.37;;;19.50;;
17727;SDS011;8984;49.268;12.302;2022-12-18T10:53:24;24.73;;;14.53;;
17727;SDS011;8984;49.268;12.302;2022-12-18T10:55:53;24.90;;;15.00;;
17727;SDS011;8984;49.268;12.302;2022-12-18T10:58:26;40.43;;;22.33;;
17727;SDS011;8984;49.268;12.302;2022-12-18T11:01:06;18.10;;;11.00;;
17727;SDS011;8984;49.268;12.302;2022-12-18T11:03:36;17.10;;;10.50;;
17727;SDS011;8984;49.268;12.302;2022-12-18T11:06:05;21.80;;;13.83;;
17727;SDS011;8984;49.268;12.302;2022-12-18T11:08:34;13.97;;;9.67;;
17727;SDS011;8984;49.268;12.302;2022-12-18T11:11:01;15.13;;;10.00;;
17727;SDS011;8984;49.268;12.302;2022-12-18T11:13:29;14.47;;;9.97;;
17727;SDS011;8984;49.268;12.302;2022-12-18T11:15:57;14.60;;;9.93;;
17727;SDS011;8984;49.268;12.302;2022-12-18T11:18:27;14.67;;;9.00;;
17727;SDS011;8984;49.268;12.302;2022-12-18T11:20:57;16.47;;;10.00;;
17727;SDS011;8984;49.268;12.302;2022-12-18T11:23:26;16.50;;;8.90;;
17727;SDS011;8984;49.268;12.302;2022-12-18T11:25:54;14.20;;;9.17;;
17727;SDS011;8984;49.268;12.302;2022-12-18T11:31:17;13.47;;;8.27;;
17727;SDS011;8984;49.268;12.302;2022-12-18T11:33:49;14.77;;;9.27;;
17727;SDS011;8984;49.268;12.302;2022-12-18T11:36:30;14.27;;;9.33;;
17727;SDS011;8984;49.268;12.302;2022-12-18T11:39:01;13.20;;;8.67;;
17727;SDS011;8984;49.268;12.302;2022-12-18T11:41:32;12.40;;;8.00;;
17727;SDS011;8984;49.268;12.302;2022-12-18T11:44:22;14.23;;;9.50;;
17727;SDS011;8984;49.268;12.302;2022-12-18T11:46:55;14.60;;;9.63;;
17727;SDS011;8984;49.268;12.302;2022-12-18T11:49:28;16.87;;;9.30;;
17727;SDS011;8984;49.268;12.302;2022-12-18T11:52:00;14.67;;;9.20;;
17727;SDS011;8984;49.268;12.302;2022-12-18T11:54:30;13.93;;;9.07;;
17727;SDS011;8984;49.268;12.302;2022-12-18T11:56:58;16.50;;;9.73;;
17727;SDS011;8984;49.268;12.302;2022-12-18T11:59:32;14.20;;;9.33;;
17727;SDS011;8984;49.268;12.302;2022-12-18T12:02:09;14.83;;;9.27;;
17727;SDS011;8984;49.268;12.302;2022-12-18T12:04:48;16.53;;;10.10;;
17727;SDS011;8984;49.268;12.302;2022-12-18T12:07:33;14.03;;;9.53;;
17727;SDS011;8984;49.268;12.302;2022-12-18T12:10:13;16.50;;;9.87;;
17727;SDS011;8984;49.268;12.302;2022-12-18T12:12:54;16.63;;;10.73;;
17727;SDS011;8984;49.268;12.302;2022-12-18T12:15:38;17.43;;;10.30;;
17727;SDS011;8984;49.268;12.302;2022-12-18T12:18:13;16.13;;;9.97;;
17727;SDS011;8984;49.268;12.302;2022-12-18T12:20:52;17.67;;;10.67;;
17727;SDS011;8984;49.268;12.302;2022-12-18T12:23:29;26.50;;;14.80;;
17727;SDS011;8984;49.268;12.302;2022-12-18T12:26:04;23.33;;;12.53;;
17727;SDS011;8984;49.268;12.302;2022-12-18T12:28:46;16.30;;;10.77;;
17727;SDS011;8984;49.268;12.302;2022-12-18T12:31:26;18.53;;;11.43;;
17727;SDS011;8984;49.268;12.302;2022-12-18T12:34:04;18.67;;;11.37;;
17727;SDS011;8984;49.268;12.302;2022-12-18T12:36:41;19.00;;;11.33;;
17727;SDS011;8984;49.268;12.302;2022-12-18T12:39:20;17.73;;;10.70;;
17727;SDS011;8984;49.268;12.302;2022-12-18T12:41:53;21.57;;;13.50;;
17727;SDS011;8984;49.268;12.302;2022-12-18T12:44:38;28.97;;;15.87;;
17727;SDS011;8984;49.268;12.302;2022-12-18T12:47:10;18.60;;;11.60;;
17727;SDS011;8984;49.268;12.302;2022-12-18T12:49:41;18.57;;;12.33;;
17727;SDS011;8984;49.268;12.302;2022-12-18T12:52:15;19.47;;;11.97;;
17727;SDS011;8984;49.268;12.302;2022-12-18T12:54:48;17.23;;;11.30;;
17727;SDS011;8984;49.268;12.302;2022-12-18T12:57:17;18.30;;;11.30;;
17727;SDS011;8984;49.268;12.302;2022-12-18T12:59:50;17.90;;;11.67;;
17727;SDS011;8984;49.268;12.302;2022-12-18T13:02:26;18.60;;;11.03;;
17727;SDS011;8984;49.268;12.302;2022-12-18T13:04:57;19.20;;;11.87;;
17727;SDS011;8984;49.268;12.302;2022-12-18T13:07:32;18.73;;;12.03;;
17727;SDS011;8984;49.268;12.302;2022-12-18T13:10:12;17.87;;;11.43;;
17727;SDS011;8984;49.268;12.302;2022-12-18T13:12:53;19.23;;;12.27;;
17727;SDS011;8984;49.268;12.302;2022-12-18T13:15:23;71.60;;;19.20;;
17727;SDS011;8984;49.268;12.302;2022-12-18T13:18:02;74.23;;;21.93;;
17727;SDS011;8984;49.268;12.302;2022-12-18T13:20:35;36.73;;;15.60;;
17727;SDS011;8984;49.268;12.302;2022-12-18T13:25:59;20.83;;;11.77;;
17727;SDS011;8984;49.268;12.302;2022-12-18T13:28:51;21.83;;;11.97;;
17727;SDS011;8984;49.268;12.302;2022-12-18T13:34:25;19.50;;;12.37;;
17727;SDS011;8984;49.268;12.302;2022-12-18T13:36:54;18.93;;;12.43;;
17727;SDS011;8984;49.268;12.302;2022-12-18T13:39:26;19.67;;;12.47;;
17727;SDS011;8984;49.268;12.302;2022-12-18T13:45:50;20.10;;;11.47;;
17727;SDS011;8984;49.268;12.302;2022-12-18T13:48:27;19.13;;;11.77;;
17727;SDS011;8984;49.268;12.302;2022-12-18T13:50:58;18.63;;;11.53;;
17727;SDS011;8984;49.268;12.302;2022-12-18T13:53:29;23.37;;;12.97;;
17727;SDS011;8984;49.268;12.302;2022-12-18T13:56:00;24.07;;;12.67;;
17727;SDS011;8984;49.268;12.302;2022-12-18T13:58:27;22.63;;;12.90;;
17727;SDS011;8984;49.268;12.302;2022-12-18T14:00:56;27.03;;;13.60;;
17727;SDS011;8984;49.268;12.302;2022-12-18T14:03:24;23.23;;;13.73;;
17727;SDS011;8984;49.268;12.302;2022-12-18T14:05:54;22.37;;;13.40;;
17727;SDS011;8984;49.268;12.302;2022-12-18T14:08:22;23.30;;;14.17;;
17727;SDS011;8984;49.268;12.302;2022-12-18T14:10:51;21.87;;;13.50;;
17727;SDS011;8984;49.268;12.302;2022-12-18T14:13:19;23.53;;;14.07;;
17727;SDS011;8984;49.268;12.302;2022-12-18T14:15:53;22.97;;;13.93;;
17727;SDS011;8984;49.268;12.302;2022-12-18T14:18:23;26.03;;;14.57;;
17727;SDS011;8984;49.268;12.302;2022-12-18T14:20:52;28.73;;;15.87;;
17727;SDS011;8984;49.268;12.302;2022-12-18T14:23:27;26.27;;;15.17;;
17727;SDS011;8984;49.268;12.302;2022-12-18T14:25:58;28.57;;;16.20;;
17727;SDS011;8984;49.268;12.302;2022-12-18T14:28:26;31.00;;;17.30;;
17727;SDS011;8984;49.268;12.302;2022-12-18T14:30:53;28.43;;;16.07;;
17727;SDS011;8984;49.268;12.302;2022-12-18T14:33:23;25.30;;;15.47;;
17727;SDS011;8984;49.268;12.302;2022-12-18T14:35:55;31.20;;;18.03;;
17727;SDS011;8984;49.268;12.302;2022-12-18T14:38:24;29.70;;;15.70;;
17727;SDS011;8984;49.268;12.302;2022-12-18T14:40:57;27.60;;;16.53;;
17727;SDS011;8984;49.268;12.302;2022-12-18T14:43:25;29.40;;;17.33;;
17727;SDS011;8984;49.268;12.302;2022-12-18T14:45:53;32.00;;;18.93;;
17727;SDS011;8984;49.268;12.302;2022-12-18T14:48:30;33.07;;;19.80;;
17727;SDS011;8984;49.268;12.302;2022-12-18T14:51:02;36.27;;;19.43;;
17727;SDS011;8984;49.268;12.302;2022-12-18T14:53:32;35.13;;;20.07;;